Silver Cloud — C6MQ5 — position and weather

sailwx.info

Track history (hours):
 
Tides and Currents Weather Stations Pressure Air Temp Water Temp Dewpoint Dewpoint Depression Visibility Wind Speed Wind Dir Waves Ship Positions

Silver Cloud

Operator: V Ships Leisure SAM

Last reported at 2017-Jun-23 20:00 UTC. Time now 2017-Jun-23 20:27 UTC.
Position N 68°09' E 012°54'.

Length 156 m; draft 5.7 m.

Type: Passenger vessel. MMSI: 309027000.

Date/timePositionNaut miles runAvg speedWind from/ knotsBaromVisibWave heightAir tempDewpointWater temp
2017-Jun-23 20:00N 68°09' E 012°54'713.8
2017-Jun-23 19:30N 68°04' E 012°43'713.9
2017-Jun-23 19:00N 67°58' E 012°32'713.9
2017-Jun-23 18:30N 67°53' E 012°21'32516.1
2017-Jun-22 22:21N 63°05' E 006°18'515.8
2017-Jun-22 22:00N 62°60' E 006°12'815.6
2017-Jun-22 21:30N 62°53' E 006°04'815.7
2017-Jun-22 21:00N 62°46' E 005°54'815.7
2017-Jun-22 20:30N 62°40' E 005°45'815.2
2017-Jun-22 20:00N 62°33' E 005°41'815.8
2017-Jun-22 19:30N 62°27' E 005°54'714.4
2017-Jun-22 19:00N 62°24' E 006°07'917.4
2017-Jun-22 18:30N 62°25' E 006°26'917.5
2017-Jun-22 18:00N 62°27' E 006°44'814.8
2017-Jun-22 17:30N 62°22' E 006°56'816.4
2017-Jun-22 17:00N 62°14' E 007°01'816.1
2017-Jun-22 16:30N 62°07' E 006°58'612.4
2017-Jun-22 15:59N 62°07' E 007°11'0 0.1
2017-Jun-22 15:29N 62°07' E 007°11'0 0.0
2017-Jun-22 14:59N 62°07' E 007°11'0 0.0
2017-Jun-22 13:59N 62°07' E 007°11'0 0.0
2017-Jun-22 13:29N 62°07' E 007°11'0 0.0
2017-Jun-22 12:59N 62°07' E 007°11'0 0.0
2017-Jun-22 12:29N 62°07' E 007°11'0 0.0
2017-Jun-22 11:59N 62°07' E 007°11'0 0.0
2017-Jun-22 11:29N 62°07' E 007°11'0 0.0
2017-Jun-22 10:59N 62°07' E 007°11'0 0.0
2017-Jun-22 10:29N 62°07' E 007°11'0 0.0
2017-Jun-22 09:59N 62°07' E 007°11'0 0.0
2017-Jun-22 09:29N 62°07' E 007°11'2 4.3
2017-Jun-22 09:00N 62°07' E 007°07'5 1.5
2017-Jun-22 05:28N 62°07' E 006°55'613.8
2017-Jun-22 05:00N 62°12' E 007°01'714.1
2017-Jun-22 04:30N 62°19' E 006°58'713.8
2017-Jun-22 04:00N 62°26' E 006°53'713.8
2017-Jun-22 03:30N 62°27' E 006°39'714.4
2017-Jun-22 03:00N 62°25' E 006°24'714.1
2017-Jun-22 02:30N 62°23' E 006°09'612.5
2017-Jun-22 02:00N 62°27' E 005°58'714.0
2017-Jun-22 01:30N 62°30' E 005°44'714.6
2017-Jun-22 01:00N 62°28' E 005°29'815.7
2017-Jun-22 00:30N 62°23' E 005°17'815.6
2017-Jun-21 23:59N 62°17' E 005°05'815.9
2017-Jun-21 23:30N 62°12' E 004°53'815.8
2017-Jun-21 23:00N 62°06' E 004°42'815.7
2017-Jun-21 22:30N 61°60' E 004°30'5215.6
2017-Jun-21 19:09N 61°08' E 004°16'316.1
2017-Jun-21 18:59N 61°06' E 004°16'816.1
2017-Jun-21 18:30N 60°58' E 004°18'816.3
2017-Jun-21 18:00N 60°50' E 004°22'815.7
2017-Jun-21 17:30N 60°42' E 004°20'9815.9
2017-Jun-21 11:21N 59°06' E 004°46'716.0
2017-Jun-21 10:56N 58°59' E 004°51'715.6
2017-Jun-21 10:30N 58°53' E 004°56'815.1
2017-Jun-21 10:00N 58°46' E 005°02'816.0
2017-Jun-21 09:30N 58°40' E 005°12'815.7
2017-Jun-21 09:00N 58°34' E 005°21'815.8
2017-Jun-21 08:30N 58°28' E 005°31'815.5
2017-Jun-21 08:00N 58°23' E 005°42'815.5
2017-Jun-21 07:30N 58°18' E 005°53'815.3
2017-Jun-21 07:00N 58°13' E 006°04'816.0
2017-Jun-21 06:30N 58°08' E 006°16'816.2
2017-Jun-21 06:01N 58°03' E 006°28'815.4
2017-Jun-21 05:30N 57°58' E 006°40'816.4
2017-Jun-21 05:00N 57°57' E 006°55'816.2
2017-Jun-21 04:30N 57°56' E 007°10'10515.3
2017-Jun-20 21:41N 58°43' E 010°07'415.7
2017-Jun-20 21:27N 58°46' E 010°12'716.2
2017-Jun-20 21:00N 58°51' E 010°23'815.9
2017-Jun-20 20:30N 58°57' E 010°33'714.7
2017-Jun-20 20:00N 59°04' E 010°33'815.5
2017-Jun-20 19:31N 59°11' E 010°38'918.1
2017-Jun-20 19:01N 59°20' E 010°35'917.6
2017-Jun-20 18:31N 59°29' E 010°34'815.3
2017-Jun-20 18:00N 59°37' E 010°38'713.4
2017-Jun-20 17:30N 59°43' E 010°34'815.5
2017-Jun-20 17:00N 59°51' E 010°35'610.7
2017-Jun-20 16:28N 59°54' E 010°44'0 0.0
2017-Jun-20 15:58N 59°54' E 010°44'0 0.0
2017-Jun-20 15:28N 59°54' E 010°44'0 0.0
2017-Jun-20 14:58N 59°54' E 010°44'0 0.0
2017-Jun-20 13:58N 59°54' E 010°44'0 0.0
2017-Jun-20 13:28N 59°54' E 010°44'0 0.0
2017-Jun-20 12:58N 59°54' E 010°44'0 0.0
2017-Jun-20 12:28N 59°54' E 010°44'0 0.0
2017-Jun-20 11:58N 59°54' E 010°44'0 0.0
2017-Jun-20 11:25N 59°54' E 010°44'0 0.0
2017-Jun-20 10:58N 59°54' E 010°44'0 0.0
2017-Jun-20 10:28N 59°54' E 010°44'0 0.0
2017-Jun-20 09:58N 59°54' E 010°44'0 0.0
2017-Jun-20 09:28N 59°54' E 010°44'0 0.0
2017-Jun-20 08:58N 59°54' E 010°44'0 0.0
2017-Jun-20 08:28N 59°54' E 010°44'0 0.0
2017-Jun-20 07:58N 59°54' E 010°44'0 0.0
2017-Jun-20 07:28N 59°54' E 010°44'0 0.0
2017-Jun-20 06:58N 59°54' E 010°44'0 0.0
2017-Jun-20 06:28N 59°54' E 010°44'0 0.0
2017-Jun-20 05:58N 59°54' E 010°44'0 0.0
2017-Jun-20 05:28N 59°54' E 010°44'0 0.0
2017-Jun-20 05:00N 59°54' E 010°44'0 0.2
2017-Jun-20 04:30N 59°54' E 010°44'510.2
2017-Jun-20 04:00N 59°51' E 010°37'816.2
2017-Jun-20 03:30N 59°43' E 010°35'714.3
2017-Jun-20 03:00N 59°36' E 010°38'816.4
2017-Jun-20 02:30N 59°28' E 010°34'816.2
2017-Jun-20 02:00N 59°20' E 010°36'816.7
2017-Jun-20 01:30N 59°12' E 010°39'714.5
2017-Jun-20 01:00N 59°05' E 010°35'510.1
2017-Jun-20 00:30N 58°59' E 010°35'5 9.2
2017-Jun-20 00:00N 58°55' E 010°33'4 8.5
2017-Jun-19 23:30N 58°52' E 010°27'4 7.9
2017-Jun-19 23:00N 58°50' E 010°21'4 7.4
2017-Jun-19 22:30N 58°48' E 010°14'4 7.5
2017-Jun-19 22:00N 58°47' E 010°08'4 7.9
2017-Jun-19 21:30N 58°45' E 010°01'4 8.0
2017-Jun-19 21:00N 58°43' E 009°54'4 8.1
2017-Jun-19 20:30N 58°41' E 009°48'4 8.1
2017-Jun-19 20:00N 58°39' E 009°41'4 8.0
2017-Jun-19 19:30N 58°37' E 009°34'4 8.1
2017-Jun-19 19:00N 58°35' E 009°27'4 8.2
2017-Jun-19 18:28N 58°33' E 009°20'5 8.2
2017-Jun-19 17:53N 58°30' E 009°12'4 8.2
2017-Jun-19 17:26N 58°28' E 009°06'3 7.9
2017-Jun-19 17:00N 58°27' E 009°00'5 8.0
2017-Jun-19 16:21N 58°24' E 008°52'3 7.3
2017-Jun-19 16:00N 58°25' E 008°47'3 0.8
2017-Jun-19 12:49N 58°27' E 008°46'0 0.0
2017-Jun-19 12:28N 58°27' E 008°46'0 0.0
2017-Jun-19 11:58N 58°27' E 008°46'0 0.0
2017-Jun-19 11:28N 58°27' E 008°46'0 0.0
2017-Jun-19 10:58N 58°27' E 008°46'0 0.0
2017-Jun-19 10:28N 58°27' E 008°46'0 0.0
2017-Jun-19 09:58N 58°27' E 008°46'0 0.0
2017-Jun-19 09:28N 58°27' E 008°46'0 0.0
2017-Jun-19 08:58N 58°27' E 008°46'0 0.0
2017-Jun-19 08:28N 58°27' E 008°46'0 0.0
2017-Jun-19 07:58N 58°27' E 008°46'0 0.0
2017-Jun-19 07:28N 58°27' E 008°46'0 0.0
2017-Jun-19 06:58N 58°27' E 008°46'0 0.0
2017-Jun-19 06:28N 58°27' E 008°46'0 0.0
2017-Jun-19 05:58N 58°27' E 008°46'0 0.0
2017-Jun-19 05:28N 58°27' E 008°46'0 0.3
2017-Jun-19 05:00N 58°27' E 008°47'4 7.5
2017-Jun-19 04:30N 58°24' E 008°49'713.2
2017-Jun-19 04:00N 58°20' E 008°59'714.7
2017-Jun-19 03:30N 58°17' E 009°11'714.2
2017-Jun-19 03:00N 58°13' E 009°23'713.5
2017-Jun-19 02:27N 58°09' E 009°35'612.9
2017-Jun-19 02:00N 58°07' E 009°45'613.0
2017-Jun-19 01:30N 58°04' E 009°56'713.7
2017-Jun-19 01:00N 58°00' E 010°08'713.9
2017-Jun-19 00:30N 57°57' E 010°19'713.9
2017-Jun-19 00:00N 57°54' E 010°30'713.6
2017-Jun-18 23:30N 57°51' E 010°42'713.4
2017-Jun-18 23:00N 57°48' E 010°53'713.4
2017-Jun-18 22:30N 57°45' E 011°04'713.5
2017-Jun-18 22:00N 57°42' E 011°16'713.2
2017-Jun-18 21:30N 57°39' E 011°27'713.5
2017-Jun-18 21:00N 57°36' E 011°38'612.3
2017-Jun-18 20:30N 57°40' E 011°47'5 9.6
2017-Jun-18 20:00N 57°42' E 011°55'2 2.8
2017-Jun-18 19:26N 57°43' E 011°58'0 0.0
2017-Jun-18 18:59N 57°43' E 011°58'0 0.0
2017-Jun-18 18:29N 57°43' E 011°58'0 0.0
2017-Jun-18 17:59N 57°43' E 011°58'0 0.0
2017-Jun-18 17:29N 57°43' E 011°58'0 0.0
2017-Jun-18 16:59N 57°43' E 011°58'0 0.0
2017-Jun-18 16:29N 57°43' E 011°58'0 0.0
2017-Jun-18 15:59N 57°43' E 011°58'0 0.0
2017-Jun-18 15:29N 57°43' E 011°58'0 0.0
2017-Jun-18 14:59N 57°43' E 011°58'0 0.0
2017-Jun-18 13:59N 57°43' E 011°58'0 0.0
2017-Jun-18 13:29N 57°43' E 011°58'0 0.0
2017-Jun-18 12:59N 57°43' E 011°58'0 0.0
2017-Jun-18 12:29N 57°43' E 011°58'0 0.0
2017-Jun-18 11:59N 57°43' E 011°58'0 0.0
2017-Jun-18 11:29N 57°43' E 011°58'0 0.0
2017-Jun-18 10:59N 57°43' E 011°58'0 0.0
2017-Jun-18 10:29N 57°43' E 011°58'0 0.0
2017-Jun-18 09:59N 57°43' E 011°58'0 0.0
2017-Jun-18 09:29N 57°43' E 011°58'0 0.0
2017-Jun-18 08:59N 57°43' E 011°58'0 0.0
2017-Jun-18 08:29N 57°43' E 011°58'0 0.0
2017-Jun-18 07:59N 57°43' E 011°58'0 0.0
2017-Jun-18 07:29N 57°43' E 011°58'0 0.0
2017-Jun-18 06:59N 57°43' E 011°58'0 0.0
2017-Jun-18 06:29N 57°43' E 011°58'0 0.0
2017-Jun-18 05:59N 57°43' E 011°58'1 2.4
2017-Jun-18 05:30N 57°42' E 011°56'4 8.4
2017-Jun-18 05:01N 57°41' E 011°49'714.9
2017-Jun-18 04:30N 57°35' E 011°39'611.7
2017-Jun-18 04:00N 57°29' E 011°38'612.0
2017-Jun-18 03:30N 57°23' E 011°38'611.5
2017-Jun-18 03:00N 57°18' E 011°39'510.8
2017-Jun-18 02:30N 57°12' E 011°40'711.5
2017-Jun-18 01:56N 57°06' E 011°42'511.8
2017-Jun-18 01:29N 57°01' E 011°45'2310.2
2017-Jun-17 23:15N 56°38' E 011°48'60 3.3
2017-Jun-17 05:23N 56°09' E 010°13'3 6.8
2017-Jun-17 05:00N 56°09' E 010°18'4 8.6
2017-Jun-17 04:30N 56°06' E 010°24'62 6.9
2017-Jun-16 19:31N 56°13' E 012°15'0 7.7
2017-Jun-16 19:30N 56°14' E 012°15'4 7.2
2017-Jun-16 18:59N 56°12' E 012°21'4 7.5
2017-Jun-16 18:30N 56°10' E 012°26'4 7.2
2017-Jun-16 18:00N 56°08' E 012°32'612.8
2017-Jun-16 17:30N 56°03' E 012°40'713.7
2017-Jun-16 17:00N 55°57' E 012°43'714.1
2017-Jun-16 16:30N 55°49' E 012°44'714.4
2017-Jun-16 16:00N 55°43' E 012°38'2 3.2
2017-Jun-16 15:28N 55°42' E 012°36'0 0.0
2017-Jun-16 14:58N 55°42' E 012°36'0 0.0
2017-Jun-16 13:58N 55°42' E 012°36'0 0.0
2017-Jun-16 13:28N 55°42' E 012°36'0 0.0
2017-Jun-16 12:58N 55°42' E 012°36'0 0.0
2017-Jun-16 12:28N 55°42' E 012°36'0 0.0
2017-Jun-16 11:58N 55°42' E 012°36'0 0.0
2017-Jun-16 11:28N 55°42' E 012°36'0 0.0
2017-Jun-16 10:58N 55°42' E 012°36'0 0.0
2017-Jun-16 10:28N 55°42' E 012°36'0 0.0
2017-Jun-16 09:58N 55°42' E 012°36'0 0.0
2017-Jun-16 09:27N 55°42' E 012°36'0 0.0
2017-Jun-16 08:58N 55°42' E 012°36'0 0.0
2017-Jun-16 08:28N 55°42' E 012°36'0 0.0
2017-Jun-16 07:58N 55°42' E 012°36'0 0.0
2017-Jun-16 07:28N 55°42' E 012°36'0 0.0
2017-Jun-16 06:58N 55°42' E 012°36'0 0.0
2017-Jun-16 06:28N 55°42' E 012°36'0 0.0
2017-Jun-16 05:55N 55°42' E 012°36'0 0.0
2017-Jun-16 05:31N 55°42' E 012°36'1 1.2
2017-Jun-16 05:01N 55°42' E 012°36'3 6.7
2017-Jun-16 04:30N 55°40' E 012°41'713.0
2017-Jun-16 04:00N 55°34' E 012°42'714.5
2017-Jun-16 03:30N 55°27' E 012°42'815.8
2017-Jun-16 03:00N 55°19' E 012°41'815.6
2017-Jun-16 02:30N 55°11' E 012°40'815.7
2017-Jun-16 02:00N 55°03' E 012°41'1315.2
2017-Jun-16 01:11N 54°51' E 012°36'3015.8
2017-Jun-15 23:15N 54°24' E 012°10'416.4
2017-Jun-15 23:00N 54°24' E 012°03'815.4
2017-Jun-15 22:30N 54°20' E 011°52'2213.8
2017-Jun-15 20:57N 54°04' E 011°27'512.2
2017-Jun-15 20:30N 54°01' E 011°20'611.6
2017-Jun-15 20:00N 53°56' E 011°25'2 4.5
2017-Jun-15 19:30N 53°54' E 011°27'0 0.0
2017-Jun-15 19:00N 53°54' E 011°27'0 0.0
2017-Jun-15 18:30N 53°54' E 011°27'0 0.0
2017-Jun-15 18:00N 53°54' E 011°27'0 0.0
2017-Jun-15 17:30N 53°54' E 011°27'0 0.0
2017-Jun-15 17:00N 53°54' E 011°27'0 0.0
2017-Jun-15 16:30N 53°54' E 011°27'0 0.0
2017-Jun-15 16:00N 53°54' E 011°27'0 0.0
2017-Jun-15 15:30N 53°54' E 011°27'0 0.0
2017-Jun-15 15:00N 53°54' E 011°27'0 0.0
2017-Jun-15 14:00N 53°54' E 011°27'0 0.0
2017-Jun-15 13:30N 53°54' E 011°27'0 0.0
2017-Jun-15 12:57N 53°54' E 011°27'0 0.0
2017-Jun-15 12:30N 53°54' E 011°27'0 0.0
2017-Jun-15 12:00N 53°54' E 011°27'0 0.0
2017-Jun-15 11:30N 53°54' E 011°27'0 0.0
2017-Jun-15 11:00N 53°54' E 011°27'0 0.0
2017-Jun-15 10:30N 53°54' E 011°27'0 0.0
2017-Jun-15 10:00N 53°54' E 011°27'0 0.0
2017-Jun-15 09:30N 53°54' E 011°27'0 0.0
2017-Jun-15 09:00N 53°54' E 011°27'0 0.5
2017-Jun-15 08:30N 53°54' E 011°27'4 7.6
2017-Jun-15 08:00N 53°57' E 011°23'4 8.3
2017-Jun-15 07:30N 54°01' E 011°21'611.1
2017-Jun-15 06:59N 54°06' E 011°26'2814.4
2017-Jun-15 05:05N 54°33' E 011°16'117.0
2017-Jun-15 05:00N 54°34' E 011°14'917.4
2017-Jun-15 04:30N 54°34' E 010°59'816.7
2017-Jun-15 04:00N 54°34' E 010°44'816.6
2017-Jun-15 03:30N 54°32' E 010°30'816.3
2017-Jun-15 03:00N 54°29' E 010°17'42 5.0
2017-Jun-14 18:35N 54°04' E 009°19'1 8.5
2017-Jun-14 18:30N 54°03' E 009°19'4 8.3
2017-Jun-14 17:59N 53°59' E 009°17'4 8.5
2017-Jun-14 17:30N 53°56' E 009°13'3 6.3
2017-Jun-14 16:59N 53°54' E 009°09'0 0.0
2017-Jun-14 16:29N 53°54' E 009°09'0 0.0
2017-Jun-14 15:59N 53°54' E 009°09'1 2.2
2017-Jun-14 15:30N 53°53' E 009°07'1 2.5
2017-Jun-14 15:00N 53°53' E 009°05'0 0.0
2017-Jun-14 13:57N 53°53' E 009°05'0 0.0
2017-Jun-14 13:24N 53°53' E 009°05'0 0.0
2017-Jun-14 13:00N 53°53' E 009°05'0 0.0
2017-Jun-14 12:30N 53°53' E 009°05'0 0.0
2017-Jun-14 12:00N 53°53' E 009°05'0 0.1
2017-Jun-14 11:27N 53°53' E 009°05'0 0.1
2017-Jun-14 10:57N 53°53' E 009°05'0 0.1
2017-Jun-14 10:30N 53°53' E 009°05'611.2
2017-Jun-14 10:00N 53°51' E 008°56'713.1
2017-Jun-14 09:30N 53°51' E 008°45'613.1
2017-Jun-14 09:00N 53°57' E 008°39'815.2
2017-Jun-14 08:30N 53°59' E 008°26'816.4
2017-Jun-14 08:00N 54°00' E 008°12'815.4
2017-Jun-14 07:27N 53°59' E 007°58'11017.0
2017-Jun-14 00:58N 53°28' E 004°59'2216.5
2017-Jun-13 23:37N 53°12' E 004°33'217.9
2017-Jun-13 23:30N 53°10' E 004°31'917.8
2017-Jun-13 23:00N 53°03' E 004°23'917.3
2017-Jun-13 22:30N 52°55' E 004°17'917.3
2017-Jun-13 22:00N 52°48' E 004°09'917.3
2017-Jun-13 21:30N 52°41' E 004°01'917.7
2017-Jun-13 21:00N 52°34' E 003°51'917.9
2017-Jun-13 20:30N 52°27' E 003°42'918.2
2017-Jun-13 20:00N 52°22' E 003°30'  
Track history (hours):
 
Tides and Currents Weather Stations Pressure Air Temp Water Temp Dewpoint Dewpoint Depression Visibility Wind Speed Wind Dir Waves Ship Positions

Silver Cloud

Operator: V Ships Leisure SAM

Last reported at 2017-Jun-23 20:00 UTC. Time now 2017-Jun-23 20:27 UTC.
Position N 68°09' E 012°54'.

Length 156 m; draft 5.7 m.

Type: Passenger vessel. MMSI: 309027000.

Date/timePositionNaut miles runAvg speedWind from/ knotsBaromVisibWave heightAir tempDewpointWater temp
2017-Jun-23 20:00N 68°09' E 012°54'713.8
2017-Jun-23 19:30N 68°04' E 012°43'713.9
2017-Jun-23 19:00N 67°58' E 012°32'713.9
2017-Jun-23 18:30N 67°53' E 012°21'32516.1
2017-Jun-22 22:21N 63°05' E 006°18'515.8
2017-Jun-22 22:00N 62°60' E 006°12'815.6
2017-Jun-22 21:30N 62°53' E 006°04'815.7
2017-Jun-22 21:00N 62°46' E 005°54'815.7
2017-Jun-22 20:30N 62°40' E 005°45'815.2
2017-Jun-22 20:00N 62°33' E 005°41'815.8
2017-Jun-22 19:30N 62°27' E 005°54'714.4
2017-Jun-22 19:00N 62°24' E 006°07'917.4
2017-Jun-22 18:30N 62°25' E 006°26'917.5
2017-Jun-22 18:00N 62°27' E 006°44'814.8
2017-Jun-22 17:30N 62°22' E 006°56'816.4
2017-Jun-22 17:00N 62°14' E 007°01'816.1
2017-Jun-22 16:30N 62°07' E 006°58'612.4
2017-Jun-22 15:59N 62°07' E 007°11'0 0.1
2017-Jun-22 15:29N 62°07' E 007°11'0 0.0
2017-Jun-22 14:59N 62°07' E 007°11'0 0.0
2017-Jun-22 13:59N 62°07' E 007°11'0 0.0
2017-Jun-22 13:29N 62°07' E 007°11'0 0.0
2017-Jun-22 12:59N 62°07' E 007°11'0 0.0
2017-Jun-22 12:29N 62°07' E 007°11'0 0.0
2017-Jun-22 11:59N 62°07' E 007°11'0 0.0
2017-Jun-22 11:29N 62°07' E 007°11'0 0.0
2017-Jun-22 10:59N 62°07' E 007°11'0 0.0
2017-Jun-22 10:29N 62°07' E 007°11'0 0.0
2017-Jun-22 09:59N 62°07' E 007°11'0 0.0
2017-Jun-22 09:29N 62°07' E 007°11'2 4.3
2017-Jun-22 09:00N 62°07' E 007°07'5 1.5
2017-Jun-22 05:28N 62°07' E 006°55'613.8
2017-Jun-22 05:00N 62°12' E 007°01'714.1
2017-Jun-22 04:30N 62°19' E 006°58'713.8
2017-Jun-22 04:00N 62°26' E 006°53'713.8
2017-Jun-22 03:30N 62°27' E 006°39'714.4
2017-Jun-22 03:00N 62°25' E 006°24'714.1
2017-Jun-22 02:30N 62°23' E 006°09'612.5
2017-Jun-22 02:00N 62°27' E 005°58'714.0
2017-Jun-22 01:30N 62°30' E 005°44'714.6
2017-Jun-22 01:00N 62°28' E 005°29'815.7
2017-Jun-22 00:30N 62°23' E 005°17'815.6
2017-Jun-21 23:59N 62°17' E 005°05'815.9
2017-Jun-21 23:30N 62°12' E 004°53'815.8
2017-Jun-21 23:00N 62°06' E 004°42'815.7
2017-Jun-21 22:30N 61°60' E 004°30'5215.6
2017-Jun-21 19:09N 61°08' E 004°16'316.1
2017-Jun-21 18:59N 61°06' E 004°16'816.1
2017-Jun-21 18:30N 60°58' E 004°18'816.3
2017-Jun-21 18:00N 60°50' E 004°22'815.7
2017-Jun-21 17:30N 60°42' E 004°20'9815.9
2017-Jun-21 11:21N 59°06' E 004°46'716.0
2017-Jun-21 10:56N 58°59' E 004°51'715.6
2017-Jun-21 10:30N 58°53' E 004°56'815.1
2017-Jun-21 10:00N 58°46' E 005°02'816.0
2017-Jun-21 09:30N 58°40' E 005°12'815.7
2017-Jun-21 09:00N 58°34' E 005°21'815.8
2017-Jun-21 08:30N 58°28' E 005°31'815.5
2017-Jun-21 08:00N 58°23' E 005°42'815.5
2017-Jun-21 07:30N 58°18' E 005°53'815.3
2017-Jun-21 07:00N 58°13' E 006°04'816.0
2017-Jun-21 06:30N 58°08' E 006°16'816.2
2017-Jun-21 06:01N 58°03' E 006°28'815.4
2017-Jun-21 05:30N 57°58' E 006°40'816.4
2017-Jun-21 05:00N 57°57' E 006°55'816.2
2017-Jun-21 04:30N 57°56' E 007°10'10515.3
2017-Jun-20 21:41N 58°43' E 010°07'415.7
2017-Jun-20 21:27N 58°46' E 010°12'716.2
2017-Jun-20 21:00N 58°51' E 010°23'815.9
2017-Jun-20 20:30N 58°57' E 010°33'714.7
2017-Jun-20 20:00N 59°04' E 010°33'815.5
2017-Jun-20 19:31N 59°11' E 010°38'918.1
2017-Jun-20 19:01N 59°20' E 010°35'917.6
2017-Jun-20 18:31N 59°29' E 010°34'815.3
2017-Jun-20 18:00N 59°37' E 010°38'713.4
2017-Jun-20 17:30N 59°43' E 010°34'815.5
2017-Jun-20 17:00N 59°51' E 010°35'610.7
2017-Jun-20 16:28N 59°54' E 010°44'0 0.0
2017-Jun-20 15:58N 59°54' E 010°44'0 0.0
2017-Jun-20 15:28N 59°54' E 010°44'0 0.0
2017-Jun-20 14:58N 59°54' E 010°44'0 0.0
2017-Jun-20 13:58N 59°54' E 010°44'0 0.0
2017-Jun-20 13:28N 59°54' E 010°44'0 0.0
2017-Jun-20 12:58N 59°54' E 010°44'0 0.0
2017-Jun-20 12:28N 59°54' E 010°44'0 0.0
2017-Jun-20 11:58N 59°54' E 010°44'0 0.0
2017-Jun-20 11:25N 59°54' E 010°44'0 0.0
2017-Jun-20 10:58N 59°54' E 010°44'0 0.0
2017-Jun-20 10:28N 59°54' E 010°44'0 0.0
2017-Jun-20 09:58N 59°54' E 010°44'0 0.0
2017-Jun-20 09:28N 59°54' E 010°44'0 0.0
2017-Jun-20 08:58N 59°54' E 010°44'0 0.0
2017-Jun-20 08:28N 59°54' E 010°44'0 0.0
2017-Jun-20 07:58N 59°54' E 010°44'0 0.0
2017-Jun-20 07:28N 59°54' E 010°44'0 0.0
2017-Jun-20 06:58N 59°54' E 010°44'0 0.0
2017-Jun-20 06:28N 59°54' E 010°44'0 0.0
2017-Jun-20 05:58N 59°54' E 010°44'0 0.0
2017-Jun-20 05:28N 59°54' E 010°44'0 0.0
2017-Jun-20 05:00N 59°54' E 010°44'0 0.2
2017-Jun-20 04:30N 59°54' E 010°44'510.2
2017-Jun-20 04:00N 59°51' E 010°37'816.2
2017-Jun-20 03:30N 59°43' E 010°35'714.3
2017-Jun-20 03:00N 59°36' E 010°38'816.4
2017-Jun-20 02:30N 59°28' E 010°34'816.2
2017-Jun-20 02:00N 59°20' E 010°36'816.7
2017-Jun-20 01:30N 59°12' E 010°39'714.5
2017-Jun-20 01:00N 59°05' E 010°35'510.1
2017-Jun-20 00:30N 58°59' E 010°35'5 9.2
2017-Jun-20 00:00N 58°55' E 010°33'4 8.5
2017-Jun-19 23:30N 58°52' E 010°27'4 7.9
2017-Jun-19 23:00N 58°50' E 010°21'4 7.4
2017-Jun-19 22:30N 58°48' E 010°14'4 7.5
2017-Jun-19 22:00N 58°47' E 010°08'4 7.9
2017-Jun-19 21:30N 58°45' E 010°01'4 8.0
2017-Jun-19 21:00N 58°43' E 009°54'4 8.1
2017-Jun-19 20:30N 58°41' E 009°48'4 8.1
2017-Jun-19 20:00N 58°39' E 009°41'4 8.0
2017-Jun-19 19:30N 58°37' E 009°34'4 8.1
2017-Jun-19 19:00N 58°35' E 009°27'4 8.2
2017-Jun-19 18:28N 58°33' E 009°20'5 8.2
2017-Jun-19 17:53N 58°30' E 009°12'4 8.2
2017-Jun-19 17:26N 58°28' E 009°06'3 7.9
2017-Jun-19 17:00N 58°27' E 009°00'5 8.0
2017-Jun-19 16:21N 58°24' E 008°52'3 7.3
2017-Jun-19 16:00N 58°25' E 008°47'3 0.8
2017-Jun-19 12:49N 58°27' E 008°46'0 0.0
2017-Jun-19 12:28N 58°27' E 008°46'0 0.0
2017-Jun-19 11:58N 58°27' E 008°46'0 0.0
2017-Jun-19 11:28N 58°27' E 008°46'0 0.0
2017-Jun-19 10:58N 58°27' E 008°46'0 0.0
2017-Jun-19 10:28N 58°27' E 008°46'0 0.0
2017-Jun-19 09:58N 58°27' E 008°46'0 0.0
2017-Jun-19 09:28N 58°27' E 008°46'0 0.0
2017-Jun-19 08:58N 58°27' E 008°46'0 0.0
2017-Jun-19 08:28N 58°27' E 008°46'0 0.0
2017-Jun-19 07:58N 58°27' E 008°46'0 0.0
2017-Jun-19 07:28N 58°27' E 008°46'0 0.0
2017-Jun-19 06:58N 58°27' E 008°46'0 0.0
2017-Jun-19 06:28N 58°27' E 008°46'0 0.0
2017-Jun-19 05:58N 58°27' E 008°46'0 0.0
2017-Jun-19 05:28N 58°27' E 008°46'0 0.3
2017-Jun-19 05:00N 58°27' E 008°47'4 7.5
2017-Jun-19 04:30N 58°24' E 008°49'713.2
2017-Jun-19 04:00N 58°20' E 008°59'714.7
2017-Jun-19 03:30N 58°17' E 009°11'714.2
2017-Jun-19 03:00N 58°13' E 009°23'713.5
2017-Jun-19 02:27N 58°09' E 009°35'612.9
2017-Jun-19 02:00N 58°07' E 009°45'613.0
2017-Jun-19 01:30N 58°04' E 009°56'713.7
2017-Jun-19 01:00N 58°00' E 010°08'713.9
2017-Jun-19 00:30N 57°57' E 010°19'713.9
2017-Jun-19 00:00N 57°54' E 010°30'713.6
2017-Jun-18 23:30N 57°51' E 010°42'713.4
2017-Jun-18 23:00N 57°48' E 010°53'713.4
2017-Jun-18 22:30N 57°45' E 011°04'713.5
2017-Jun-18 22:00N 57°42' E 011°16'713.2
2017-Jun-18 21:30N 57°39' E 011°27'713.5
2017-Jun-18 21:00N 57°36' E 011°38'612.3
2017-Jun-18 20:30N 57°40' E 011°47'5 9.6
2017-Jun-18 20:00N 57°42' E 011°55'2 2.8
2017-Jun-18 19:26N 57°43' E 011°58'0 0.0
2017-Jun-18 18:59N 57°43' E 011°58'0 0.0
2017-Jun-18 18:29N 57°43' E 011°58'0 0.0
2017-Jun-18 17:59N 57°43' E 011°58'0 0.0
2017-Jun-18 17:29N 57°43' E 011°58'0 0.0
2017-Jun-18 16:59N 57°43' E 011°58'0 0.0
2017-Jun-18 16:29N 57°43' E 011°58'0 0.0
2017-Jun-18 15:59N 57°43' E 011°58'0 0.0
2017-Jun-18 15:29N 57°43' E 011°58'0 0.0
2017-Jun-18 14:59N 57°43' E 011°58'0 0.0
2017-Jun-18 13:59N 57°43' E 011°58'0 0.0
2017-Jun-18 13:29N 57°43' E 011°58'0 0.0
2017-Jun-18 12:59N 57°43' E 011°58'0 0.0
2017-Jun-18 12:29N 57°43' E 011°58'0 0.0
2017-Jun-18 11:59N 57°43' E 011°58'0 0.0
2017-Jun-18 11:29N 57°43' E 011°58'0 0.0
2017-Jun-18 10:59N 57°43' E 011°58'0 0.0
2017-Jun-18 10:29N 57°43' E 011°58'0 0.0
2017-Jun-18 09:59N 57°43' E 011°58'0 0.0
2017-Jun-18 09:29N 57°43' E 011°58'0 0.0
2017-Jun-18 08:59N 57°43' E 011°58'0 0.0
2017-Jun-18 08:29N 57°43' E 011°58'0 0.0
2017-Jun-18 07:59N 57°43' E 011°58'0 0.0
2017-Jun-18 07:29N 57°43' E 011°58'0 0.0
2017-Jun-18 06:59N 57°43' E 011°58'0 0.0
2017-Jun-18 06:29N 57°43' E 011°58'0 0.0
2017-Jun-18 05:59N 57°43' E 011°58'1 2.4
2017-Jun-18 05:30N 57°42' E 011°56'4 8.4
2017-Jun-18 05:01N 57°41' E 011°49'714.9
2017-Jun-18 04:30N 57°35' E 011°39'611.7
2017-Jun-18 04:00N 57°29' E 011°38'612.0
2017-Jun-18 03:30N 57°23' E 011°38'611.5
2017-Jun-18 03:00N 57°18' E 011°39'510.8
2017-Jun-18 02:30N 57°12' E 011°40'711.5
2017-Jun-18 01:56N 57°06' E 011°42'511.8
2017-Jun-18 01:29N 57°01' E 011°45'2310.2
2017-Jun-17 23:15N 56°38' E 011°48'60 3.3
2017-Jun-17 05:23N 56°09' E 010°13'3 6.8
2017-Jun-17 05:00N 56°09' E 010°18'4 8.6
2017-Jun-17 04:30N 56°06' E 010°24'62 6.9
2017-Jun-16 19:31N 56°13' E 012°15'0 7.7
2017-Jun-16 19:30N 56°14' E 012°15'4 7.2
2017-Jun-16 18:59N 56°12' E 012°21'4 7.5
2017-Jun-16 18:30N 56°10' E 012°26'4 7.2
2017-Jun-16 18:00N 56°08' E 012°32'612.8
2017-Jun-16 17:30N 56°03' E 012°40'713.7
2017-Jun-16 17:00N 55°57' E 012°43'714.1
2017-Jun-16 16:30N 55°49' E 012°44'714.4
2017-Jun-16 16:00N 55°43' E 012°38'2 3.2
2017-Jun-16 15:28N 55°42' E 012°36'0 0.0
2017-Jun-16 14:58N 55°42' E 012°36'0 0.0
2017-Jun-16 13:58N 55°42' E 012°36'0 0.0
2017-Jun-16 13:28N 55°42' E 012°36'0 0.0
2017-Jun-16 12:58N 55°42' E 012°36'0 0.0
2017-Jun-16 12:28N 55°42' E 012°36'0 0.0
2017-Jun-16 11:58N 55°42' E 012°36'0 0.0
2017-Jun-16 11:28N 55°42' E 012°36'0 0.0
2017-Jun-16 10:58N 55°42' E 012°36'0 0.0
2017-Jun-16 10:28N 55°42' E 012°36'0 0.0
2017-Jun-16 09:58N 55°42' E 012°36'0 0.0
2017-Jun-16 09:27N 55°42' E 012°36'0 0.0
2017-Jun-16 08:58N 55°42' E 012°36'0 0.0
2017-Jun-16 08:28N 55°42' E 012°36'0 0.0
2017-Jun-16 07:58N 55°42' E 012°36'0 0.0
2017-Jun-16 07:28N 55°42' E 012°36'0 0.0
2017-Jun-16 06:58N 55°42' E 012°36'0 0.0
2017-Jun-16 06:28N 55°42' E 012°36'0 0.0
2017-Jun-16 05:55N 55°42' E 012°36'0 0.0
2017-Jun-16 05:31N 55°42' E 012°36'1 1.2
2017-Jun-16 05:01N 55°42' E 012°36'3 6.7
2017-Jun-16 04:30N 55°40' E 012°41'713.0
2017-Jun-16 04:00N 55°34' E 012°42'714.5
2017-Jun-16 03:30N 55°27' E 012°42'815.8
2017-Jun-16 03:00N 55°19' E 012°41'815.6
2017-Jun-16 02:30N 55°11' E 012°40'815.7
2017-Jun-16 02:00N 55°03' E 012°41'1315.2
2017-Jun-16 01:11N 54°51' E 012°36'3015.8
2017-Jun-15 23:15N 54°24' E 012°10'416.4
2017-Jun-15 23:00N 54°24' E 012°03'815.4
2017-Jun-15 22:30N 54°20' E 011°52'2213.8
2017-Jun-15 20:57N 54°04' E 011°27'512.2
2017-Jun-15 20:30N 54°01' E 011°20'611.6
2017-Jun-15 20:00N 53°56' E 011°25'2 4.5
2017-Jun-15 19:30N 53°54' E 011°27'0 0.0
2017-Jun-15 19:00N 53°54' E 011°27'0 0.0
2017-Jun-15 18:30N 53°54' E 011°27'0 0.0
2017-Jun-15 18:00N 53°54' E 011°27'0 0.0
2017-Jun-15 17:30N 53°54' E 011°27'0 0.0
2017-Jun-15 17:00N 53°54' E 011°27'0 0.0
2017-Jun-15 16:30N 53°54' E 011°27'0 0.0
2017-Jun-15 16:00N 53°54' E 011°27'0 0.0
2017-Jun-15 15:30N 53°54' E 011°27'0 0.0
2017-Jun-15 15:00N 53°54' E 011°27'0 0.0
2017-Jun-15 14:00N 53°54' E 011°27'0 0.0
2017-Jun-15 13:30N 53°54' E 011°27'0 0.0
2017-Jun-15 12:57N 53°54' E 011°27'0 0.0
2017-Jun-15 12:30N 53°54' E 011°27'0 0.0
2017-Jun-15 12:00N 53°54' E 011°27'0 0.0
2017-Jun-15 11:30N 53°54' E 011°27'0 0.0
2017-Jun-15 11:00N 53°54' E 011°27'0 0.0
2017-Jun-15 10:30N 53°54' E 011°27'0 0.0
2017-Jun-15 10:00N 53°54' E 011°27'0 0.0
2017-Jun-15 09:30N 53°54' E 011°27'0 0.0
2017-Jun-15 09:00N 53°54' E 011°27'0 0.5
2017-Jun-15 08:30N 53°54' E 011°27'4 7.6
2017-Jun-15 08:00N 53°57' E 011°23'4 8.3
2017-Jun-15 07:30N 54°01' E 011°21'611.1
2017-Jun-15 06:59N 54°06' E 011°26'2814.4
2017-Jun-15 05:05N 54°33' E 011°16'117.0
2017-Jun-15 05:00N 54°34' E 011°14'917.4
2017-Jun-15 04:30N 54°34' E 010°59'816.7
2017-Jun-15 04:00N 54°34' E 010°44'816.6
2017-Jun-15 03:30N 54°32' E 010°30'816.3
2017-Jun-15 03:00N 54°29' E 010°17'42 5.0
2017-Jun-14 18:35N 54°04' E 009°19'1 8.5
2017-Jun-14 18:30N 54°03' E 009°19'4 8.3
2017-Jun-14 17:59N 53°59' E 009°17'4 8.5
2017-Jun-14 17:30N 53°56' E 009°13'3 6.3
2017-Jun-14 16:59N 53°54' E 009°09'0 0.0
2017-Jun-14 16:29N 53°54' E 009°09'0 0.0
2017-Jun-14 15:59N 53°54' E 009°09'1 2.2
2017-Jun-14 15:30N 53°53' E 009°07'1 2.5
2017-Jun-14 15:00N 53°53' E 009°05'0 0.0
2017-Jun-14 13:57N 53°53' E 009°05'0 0.0
2017-Jun-14 13:24N 53°53' E 009°05'0 0.0
2017-Jun-14 13:00N 53°53' E 009°05'0 0.0
2017-Jun-14 12:30N 53°53' E 009°05'0 0.0
2017-Jun-14 12:00N 53°53' E 009°05'0 0.1
2017-Jun-14 11:27N 53°53' E 009°05'0 0.1
2017-Jun-14 10:57N 53°53' E 009°05'0 0.1
2017-Jun-14 10:30N 53°53' E 009°05'611.2
2017-Jun-14 10:00N 53°51' E 008°56'713.1
2017-Jun-14 09:30N 53°51' E 008°45'613.1
2017-Jun-14 09:00N 53°57' E 008°39'815.2
2017-Jun-14 08:30N 53°59' E 008°26'816.4
2017-Jun-14 08:00N 54°00' E 008°12'815.4
2017-Jun-14 07:27N 53°59' E 007°58'11017.0
2017-Jun-14 00:58N 53°28' E 004°59'2216.5
2017-Jun-13 23:37N 53°12' E 004°33'217.9
2017-Jun-13 23:30N 53°10' E 004°31'917.8
2017-Jun-13 23:00N 53°03' E 004°23'917.3
2017-Jun-13 22:30N 52°55' E 004°17'917.3
2017-Jun-13 22:00N 52°48' E 004°09'917.3
2017-Jun-13 21:30N 52°41' E 004°01'917.7
2017-Jun-13 21:00N 52°34' E 003°51'917.9
2017-Jun-13 20:30N 52°27' E 003°42'918.2
2017-Jun-13 20:00N 52°22' E 003°30'  

Dump ship's entire track history